createdAt,value
2022-10-02T00:03:27.633Z,89.80
2022-10-02T00:06:56.457Z,90.00
2022-10-02T00:10:27.572Z,90.00
2022-10-02T00:13:55.068Z,90.00
2022-10-02T00:17:24.492Z,90.80
2022-10-02T00:21:01.462Z,90.00
2022-10-02T00:24:32.265Z,90.00
2022-10-02T00:28:19.868Z,90.00
2022-10-02T00:31:54.586Z,89.50
2022-10-02T00:35:57.586Z,89.10
2022-10-02T00:39:41.451Z,88.80
2022-10-02T00:43:24.640Z,89.40
2022-10-02T00:47:00.791Z,89.70
2022-10-02T00:50:44.048Z,89.90
2022-10-02T00:54:29.199Z,89.90
2022-10-02T00:58:16.173Z,89.90
2022-10-02T01:01:46.861Z,90.00
2022-10-02T01:05:11.464Z,90.10
2022-10-02T01:08:36.571Z,90.10
2022-10-02T01:12:01.320Z,90.20
2022-10-02T01:15:34.712Z,90.30
2022-10-02T01:18:58.379Z,90.10
2022-10-02T01:22:32.843Z,90.30
2022-10-02T01:25:58.653Z,90.20
2022-10-02T01:29:22.105Z,90.20
2022-10-02T01:32:51.532Z,90.30
2022-10-02T01:36:17.202Z,90.10
2022-10-02T01:39:41.528Z,90.40
2022-10-02T01:43:10.635Z,90.50
2022-10-02T01:46:41.221Z,90.40
2022-10-02T01:50:18.476Z,90.40
2022-10-02T01:53:51.387Z,90.40
2022-10-02T01:57:32.029Z,90.50
2022-10-02T02:01:10.577Z,90.40
2022-10-02T02:04:43.385Z,90.60
2022-10-02T02:08:15.000Z,90.70
2022-10-02T02:11:47.023Z,90.70
2022-10-02T02:15:21.229Z,90.60
2022-10-02T02:18:54.873Z,90.70
2022-10-02T02:22:25.462Z,90.70
2022-10-02T02:25:57.864Z,90.80
2022-10-02T02:29:27.999Z,90.80
2022-10-02T02:32:58.167Z,90.80
2022-10-02T02:36:30.475Z,90.80
2022-10-02T02:39:59.148Z,90.70
2022-10-02T02:43:29.303Z,90.80
2022-10-02T02:47:06.851Z,90.80
2022-10-02T02:50:37.654Z,90.70
2022-10-02T02:54:09.796Z,90.50
2022-10-02T02:57:39.951Z,90.40
2022-10-02T03:01:03.436Z,90.40
2022-10-02T03:04:26.944Z,90.70
2022-10-02T03:07:54.947Z,90.70
2022-10-02T03:11:34.494Z,90.60
2022-10-02T03:15:16.142Z,90.60
2022-10-02T03:19:00.736Z,90.60
2022-10-02T03:22:36.771Z,90.40
2022-10-02T03:26:09.492Z,90.50
2022-10-02T03:29:43.790Z,90.60
2022-10-02T03:33:10.348Z,90.70
2022-10-02T03:36:35.115Z,91.20
2022-10-02T03:39:59.873Z,90.90
2022-10-02T03:43:28.055Z,90.90
2022-10-02T03:46:53.232Z,90.90
2022-10-02T03:50:17.684Z,91.00
2022-10-02T03:53:42.269Z,91.10
2022-10-02T03:57:08.551Z,91.10
2022-10-02T04:00:38.528Z,90.90
2022-10-02T04:04:14.975Z,90.70
2022-10-02T04:07:43.036Z,90.60
2022-10-02T04:11:14.497Z,90.80
2022-10-02T04:14:50.648Z,90.70
2022-10-02T04:18:23.602Z,90.60
2022-10-02T04:21:57.183Z,90.60
2022-10-02T04:25:25.223Z,90.70
2022-10-02T04:28:58.538Z,90.80
2022-10-02T04:32:28.141Z,90.70
2022-10-02T04:36:09.471Z,90.70
2022-10-02T04:40:05.575Z,90.50
2022-10-02T04:43:53.245Z,90.40
2022-10-02T04:47:53.485Z,90.40
2022-10-02T04:51:31.416Z,90.20
2022-10-02T04:55:14.216Z,90.50
2022-10-02T04:59:00.795Z,90.50
2022-10-02T05:02:40.606Z,90.50
2022-10-02T05:06:36.420Z,90.50
2022-10-02T05:10:22.467Z,90.30
2022-10-02T05:14:28.820Z,90.60
2022-10-02T05:18:18.102Z,90.30
2022-10-02T05:22:03.273Z,90.40
2022-10-02T05:26:14.335Z,90.40
2022-10-02T05:30:05.838Z,90.10
2022-10-02T05:33:58.093Z,90.40
2022-10-02T05:37:48.452Z,90.20
2022-10-02T05:41:22.626Z,90.10
2022-10-02T05:44:55.115Z,90.70
2022-10-02T05:48:25.200Z,90.70
2022-10-02T05:51:59.162Z,90.80
2022-10-02T05:55:31.051Z,90.80
2022-10-02T05:59:03.604Z,90.70
2022-10-02T06:02:39.563Z,90.60
2022-10-02T06:06:14.752Z,90.80
2022-10-02T06:09:48.801Z,90.60
2022-10-02T06:13:23.223Z,90.60
2022-10-02T06:16:57.457Z,90.70
2022-10-02T06:20:29.224Z,90.60
2022-10-02T06:23:59.430Z,90.80
2022-10-02T06:27:36.275Z,91.00
2022-10-02T06:31:11.406Z,91.10
2022-10-02T06:34:36.217Z,91.20
2022-10-02T06:38:22.214Z,91.40
2022-10-02T06:42:00.717Z,91.40
2022-10-02T06:45:40.307Z,91.50
2022-10-02T06:49:16.720Z,91.50
2022-10-02T06:52:56.720Z,91.70
2022-10-02T06:56:46.781Z,91.50
2022-10-02T07:00:15.887Z,91.40
2022-10-02T07:04:30.132Z,91.70
2022-10-02T07:08:05.525Z,91.20
2022-10-02T07:11:43.263Z,91.40
2022-10-02T07:15:32.442Z,91.40
2022-10-02T07:19:32.747Z,91.30
2022-10-02T07:23:26.514Z,91.40
2022-10-02T07:26:58.229Z,91.50
2022-10-02T07:30:22.173Z,91.80
2022-10-02T07:34:14.249Z,92.20
2022-10-02T07:37:51.718Z,91.90
2022-10-02T07:41:48.789Z,92.10
2022-10-02T07:45:38.641Z,91.90
2022-10-02T07:49:21.268Z,91.90
2022-10-02T07:53:02.856Z,92.30
2022-10-02T07:56:29.437Z,92.30
2022-10-02T08:00:00.382Z,92.30
2022-10-02T08:03:32.853Z,92.30
2022-10-02T08:07:04.835Z,92.40
2022-10-02T08:10:34.868Z,92.30
2022-10-02T08:14:07.916Z,92.50
2022-10-02T08:17:41.012Z,92.40
2022-10-02T08:21:12.252Z,92.40
2022-10-02T08:24:44.027Z,92.80
2022-10-02T08:28:21.461Z,93.30
2022-10-02T08:31:47.088Z,93.10
2022-10-02T08:35:14.856Z,93.70
2022-10-02T08:38:46.537Z,94.60
2022-10-02T08:42:57.615Z,95.00
2022-10-02T08:47:17.449Z,94.40
2022-10-02T08:51:20.646Z,95.40
2022-10-02T08:55:18.823Z,96.20
2022-10-02T08:59:39.911Z,96.20
2022-10-02T09:04:17.897Z,95.20
2022-10-02T09:08:33.200Z,94.50
2022-10-02T09:12:33.020Z,94.60
2022-10-02T09:16:11.532Z,96.70
2022-10-02T09:19:57.850Z,97.00
2022-10-02T09:24:30.961Z,95.70
2022-10-02T09:29:07.531Z,93.50
2022-10-02T09:33:28.815Z,93.30
2022-10-02T09:37:44.065Z,93.30
2022-10-02T09:42:01.882Z,94.80
2022-10-02T09:46:06.708Z,95.00
2022-10-02T09:50:17.541Z,93.80
2022-10-02T09:54:45.064Z,92.40
2022-10-02T09:59:20.303Z,91.50
2022-10-02T10:03:41.836Z,91.10
2022-10-02T10:07:41.634Z,90.90
2022-10-02T10:12:00.361Z,90.70
2022-10-02T10:16:19.876Z,90.40
2022-10-02T10:20:17.867Z,90.40
2022-10-02T10:24:19.363Z,90.60
2022-10-02T10:28:40.514Z,90.70
2022-10-02T10:33:05.169Z,90.70
2022-10-02T10:37:16.065Z,90.90
2022-10-02T10:41:01.641Z,91.90
2022-10-02T10:45:00.557Z,92.50
2022-10-02T10:48:47.113Z,92.20
2022-10-02T10:52:32.347Z,92.30
2022-10-02T10:56:26.137Z,92.60
2022-10-02T11:00:12.928Z,92.30
2022-10-02T11:04:04.583Z,91.90
2022-10-02T11:08:00.502Z,92.10
2022-10-02T11:11:39.278Z,92.20
2022-10-02T11:15:24.982Z,92.60
2022-10-02T11:19:21.773Z,92.60
2022-10-02T11:23:38.410Z,92.40
2022-10-02T11:27:40.961Z,92.50
2022-10-02T11:31:40.291Z,92.40
2022-10-02T11:35:25.966Z,92.50
2022-10-02T11:39:16.185Z,92.10
2022-10-02T11:43:11.488Z,91.90
2022-10-02T11:47:01.958Z,92.00
2022-10-02T11:50:51.384Z,92.20
2022-10-02T11:54:44.859Z,91.90
2022-10-02T11:58:22.791Z,91.80
2022-10-02T12:01:56.319Z,91.70
2022-10-02T12:05:46.737Z,91.50
2022-10-02T12:09:23.809Z,91.40
2022-10-02T12:13:07.250Z,91.50
2022-10-02T12:16:48.631Z,91.70
2022-10-02T12:20:42.887Z,92.00
2022-10-02T12:24:36.967Z,92.30
2022-10-02T12:28:14.394Z,92.30
2022-10-02T12:31:52.398Z,92.20
2022-10-02T12:35:39.799Z,91.90
2022-10-02T12:39:25.581Z,91.40
2022-10-02T12:43:27.004Z,90.80
2022-10-02T12:47:41.677Z,89.60
2022-10-02T12:51:35.519Z,89.60
2022-10-02T12:55:45.225Z,90.00
2022-10-02T12:59:20.916Z,90.10
2022-10-02T13:03:36.788Z,90.30
2022-10-02T13:07:40.314Z,90.30
2022-10-02T13:11:22.576Z,90.20
2022-10-02T13:15:22.051Z,90.30
2022-10-02T13:19:05.647Z,90.60
2022-10-02T13:22:44.907Z,90.60
2022-10-02T13:26:22.845Z,90.90
2022-10-02T13:30:14.066Z,92.00
2022-10-02T13:34:07.127Z,92.60
2022-10-02T13:37:46.067Z,93.10
2022-10-02T13:41:27.304Z,94.00
2022-10-02T13:45:05.519Z,94.20
2022-10-02T13:48:54.883Z,93.90
2022-10-02T13:52:34.274Z,93.80
2022-10-02T13:56:15.284Z,94.70
2022-10-02T14:00:08.960Z,94.40
2022-10-02T14:04:20.533Z,94.70
2022-10-02T14:08:11.314Z,94.10
2022-10-02T14:11:57.059Z,92.90
2022-10-02T14:15:44.682Z,92.40
2022-10-02T14:19:41.216Z,91.90
2022-10-02T14:23:31.977Z,92.90
2022-10-02T14:27:10.744Z,92.40
2022-10-02T14:31:01.158Z,91.80
2022-10-02T14:34:56.221Z,91.60
2022-10-02T14:38:43.716Z,92.00
2022-10-02T14:42:54.120Z,92.60
2022-10-02T14:46:38.086Z,92.90
2022-10-02T14:50:25.691Z,93.70
2022-10-02T14:54:32.121Z,93.00
2022-10-02T14:58:29.076Z,91.90
2022-10-02T15:02:16.669Z,92.40
2022-10-02T15:06:08.747Z,92.90
2022-10-02T15:09:57.319Z,92.20
2022-10-02T15:13:39.763Z,91.90
2022-10-02T15:17:28.448Z,92.00
2022-10-02T15:21:00.572Z,92.50
2022-10-02T15:24:40.577Z,91.90
2022-10-02T15:28:35.230Z,91.60
2022-10-02T15:32:31.370Z,91.60
2022-10-02T15:36:22.933Z,91.20
2022-10-02T15:40:29.836Z,91.40
2022-10-02T15:44:10.103Z,91.40
2022-10-02T15:47:55.836Z,91.70
2022-10-02T15:51:45.032Z,91.50
2022-10-02T15:55:25.075Z,91.30
2022-10-02T15:59:08.630Z,90.90
2022-10-02T16:02:54.229Z,91.30
2022-10-02T16:06:39.552Z,91.60
2022-10-02T16:10:24.459Z,91.90
2022-10-02T16:14:00.374Z,92.10
2022-10-02T16:17:44.821Z,92.00
2022-10-02T16:21:39.159Z,91.90
2022-10-02T16:25:28.569Z,91.90
2022-10-02T16:29:08.568Z,91.90
2022-10-02T16:32:47.220Z,91.80
2022-10-02T16:36:40.274Z,91.90
2022-10-02T16:40:27.584Z,92.00
2022-10-02T16:44:11.244Z,92.40
2022-10-02T16:47:47.396Z,92.40
2022-10-02T16:51:26.812Z,92.50
2022-10-02T16:54:59.355Z,92.70
2022-10-02T16:58:31.046Z,92.80
2022-10-02T17:02:17.748Z,92.60
2022-10-02T17:05:51.054Z,92.40
2022-10-02T17:09:22.124Z,92.20
2022-10-02T17:12:56.900Z,92.20
2022-10-02T17:16:29.298Z,92.10
2022-10-02T17:20:04.287Z,92.30
2022-10-02T17:23:38.747Z,92.40
2022-10-02T17:27:17.518Z,92.60
2022-10-02T17:31:25.738Z,92.70
2022-10-02T17:34:51.171Z,92.60
2022-10-02T17:38:50.549Z,92.80
2022-10-02T17:42:30.385Z,92.70
2022-10-02T17:46:06.442Z,92.70
2022-10-02T17:49:53.353Z,92.90
2022-10-02T17:54:00.751Z,92.90
2022-10-02T17:57:50.930Z,92.60
2022-10-02T18:01:31.622Z,92.70
2022-10-02T18:05:22.033Z,92.80
2022-10-02T18:09:25.900Z,92.90
2022-10-02T18:13:18.334Z,93.10
2022-10-02T18:17:07.829Z,93.00
2022-10-02T18:20:37.377Z,92.90
2022-10-02T18:24:28.528Z,92.90
2022-10-02T18:28:17.746Z,93.10
2022-10-02T18:32:08.668Z,93.30
2022-10-02T18:35:56.403Z,93.20
2022-10-02T18:39:38.181Z,93.00
2022-10-02T18:43:41.152Z,93.30
2022-10-02T18:47:17.261Z,93.20
2022-10-02T18:51:18.802Z,93.30
2022-10-02T18:55:02.958Z,93.00
2022-10-02T18:58:44.487Z,93.00
2022-10-02T19:02:29.970Z,93.10
2022-10-02T19:06:07.238Z,93.00
2022-10-02T19:09:33.381Z,92.90
2022-10-02T19:13:17.647Z,93.20
2022-10-02T19:16:58.899Z,93.20
2022-10-02T19:20:48.227Z,93.10
2022-10-02T19:24:20.325Z,93.10
2022-10-02T19:27:54.343Z,93.30
2022-10-02T19:31:26.827Z,93.20
2022-10-02T19:35:01.945Z,93.00
2022-10-02T19:38:37.322Z,93.00
2022-10-02T19:42:13.141Z,93.00
2022-10-02T19:45:42.900Z,93.20
2022-10-02T19:49:08.702Z,93.20
2022-10-02T19:52:44.969Z,93.10
2022-10-02T19:56:16.697Z,93.20
2022-10-02T19:59:47.952Z,93.20
2022-10-02T20:03:19.514Z,93.30
2022-10-02T20:06:53.095Z,93.30
2022-10-02T20:10:24.209Z,93.20
2022-10-02T20:13:54.324Z,93.10
2022-10-02T20:17:19.367Z,93.10
2022-10-02T20:20:48.021Z,93.30
2022-10-02T20:24:21.184Z,93.40
2022-10-02T20:27:51.831Z,93.40
2022-10-02T20:31:23.229Z,93.40
2022-10-02T20:34:55.032Z,93.40
2022-10-02T20:38:29.041Z,93.20
2022-10-02T20:42:00.676Z,93.40
2022-10-02T20:45:36.516Z,93.40
2022-10-02T20:49:41.238Z,93.50
2022-10-02T20:53:52.430Z,93.40
2022-10-02T20:58:01.978Z,93.50
2022-10-02T21:01:41.823Z,93.20
2022-10-02T21:05:33.314Z,93.20
2022-10-02T21:09:47.507Z,93.10
2022-10-02T21:13:54.902Z,92.90
2022-10-02T21:18:09.658Z,92.80
2022-10-02T21:22:14.407Z,92.80
2022-10-02T21:26:40.176Z,93.10
2022-10-02T21:30:14.743Z,92.90
2022-10-02T21:33:43.247Z,93.20
2022-10-02T21:37:25.552Z,93.50
2022-10-02T21:41:48.524Z,93.50
2022-10-02T21:46:08.540Z,93.50
2022-10-02T21:50:16.621Z,93.30
2022-10-02T21:54:35.778Z,93.60
2022-10-02T21:59:04.841Z,93.20
2022-10-02T22:03:13.332Z,93.20
2022-10-02T22:06:54.766Z,92.90
2022-10-02T22:10:31.061Z,92.70
2022-10-02T22:14:02.613Z,93.00
2022-10-02T22:17:41.144Z,93.20
2022-10-02T22:21:53.197Z,93.40
2022-10-02T22:25:37.938Z,93.40
2022-10-02T22:29:15.460Z,93.40
2022-10-02T22:33:14.028Z,93.40
2022-10-02T22:37:21.728Z,93.20
2022-10-02T22:40:52.215Z,93.10
2022-10-02T22:44:28.278Z,93.50
2022-10-02T22:48:04.980Z,93.50
2022-10-02T22:51:40.422Z,93.40
2022-10-02T22:55:13.382Z,93.40
2022-10-02T22:58:47.338Z,93.20
2022-10-02T23:02:23.630Z,93.20
2022-10-02T23:05:55.190Z,93.10
2022-10-02T23:09:25.621Z,93.00
2022-10-02T23:13:06.407Z,93.00
2022-10-02T23:16:36.973Z,92.80
2022-10-02T23:20:14.632Z,92.60
2022-10-02T23:23:54.037Z,92.50
2022-10-02T23:27:24.998Z,92.40
2022-10-02T23:31:02.584Z,92.60
2022-10-02T23:34:41.000Z,92.80
2022-10-02T23:38:19.293Z,92.90
2022-10-02T23:41:49.821Z,92.90
2022-10-02T23:45:25.971Z,93.00
2022-10-02T23:48:52.003Z,92.70
2022-10-02T23:52:42.816Z,93.10
2022-10-02T23:56:28.766Z,93.20
